createdAt,value
2022-09-23T00:04:00.883Z,78.76
2022-09-23T00:34:04.895Z,78.85
2022-09-23T01:04:08.034Z,78.71
2022-09-23T01:34:11.593Z,80.01
2022-09-23T02:04:15.415Z,80.08
2022-09-23T02:34:19.116Z,80.30
2022-09-23T03:04:22.449Z,80.50
2022-09-23T03:34:26.391Z,80.96
2022-09-23T04:04:29.364Z,81.12
2022-09-23T04:34:33.124Z,81.15
2022-09-23T05:04:36.072Z,81.74
2022-09-23T05:34:38.960Z,82.26
2022-09-23T06:04:42.200Z,83.04
2022-09-23T06:34:51.523Z,84.52
2022-09-23T07:04:55.336Z,85.74
2022-09-23T07:34:58.933Z,85.41
2022-09-23T08:05:02.119Z,83.01
2022-09-23T08:35:05.266Z,78.01
2022-09-23T09:05:08.578Z,73.51
2022-09-23T09:35:12.224Z,67.63
2022-09-23T10:05:23.838Z,66.50
2022-09-23T10:35:28.621Z,62.82
2022-09-23T11:05:31.370Z,63.27
2022-09-23T11:35:35.925Z,57.38
2022-09-23T12:05:38.997Z,55.64
2022-09-23T12:35:42.578Z,54.84
2022-09-23T13:05:46.046Z,54.92
2022-09-23T13:35:49.517Z,53.51
2022-09-23T14:05:53.131Z,52.31
2022-09-23T14:35:56.391Z,52.38
2022-09-23T15:05:59.163Z,54.74
2022-09-23T15:36:03.663Z,57.42
2022-09-23T16:06:06.624Z,58.32
2022-09-23T16:36:10.701Z,60.60
2022-09-23T17:06:14.202Z,61.52
2022-09-23T17:36:17.962Z,64.28
2022-09-23T18:06:21.363Z,64.99
2022-09-23T18:36:24.589Z,67.05
2022-09-23T19:06:27.954Z,69.05
2022-09-23T19:36:31.568Z,69.49
2022-09-23T20:06:34.503Z,70.83
2022-09-23T20:36:38.201Z,71.26
2022-09-23T21:06:40.942Z,72.61
2022-09-23T21:36:44.839Z,74.14
2022-09-23T22:06:48.812Z,74.23
2022-09-23T22:36:52.425Z,74.21
2022-09-23T23:06:56.891Z,74.88
2022-09-23T23:37:00.176Z,74.76
